sensor_id;sensor_type;location;lat;lon;timestamp;P1;durP1;ratioP1;P2;durP2;ratioP2
5762;SDS011;2906;53.282;9.508;2024-02-23T00:00:25;1.73;;;0.70;;
5762;SDS011;2906;53.282;9.508;2024-02-23T00:01:27;1.33;;;0.60;;
5762;SDS011;2906;53.282;9.508;2024-02-23T00:02:30;1.42;;;0.50;;
5762;SDS011;2906;53.282;9.508;2024-02-23T00:03:31;1.70;;;0.80;;
5762;SDS011;2906;53.282;9.508;2024-02-23T00:04:37;1.10;;;0.50;;
5762;SDS011;2906;53.282;9.508;2024-02-23T00:05:39;2.10;;;0.82;;
5762;SDS011;2906;53.282;9.508;2024-02-23T00:06:41;1.90;;;0.57;;
5762;SDS011;2906;53.282;9.508;2024-02-23T00:07:42;1.10;;;0.47;;
5762;SDS011;2906;53.282;9.508;2024-02-23T00:08:45;1.00;;;0.32;;
5762;SDS011;2906;53.282;9.508;2024-02-23T00:09:46;4.22;;;0.60;;
5762;SDS011;2906;53.282;9.508;2024-02-23T00:10:48;3.15;;;0.50;;
5762;SDS011;2906;53.282;9.508;2024-02-23T00:11:50;1.80;;;0.40;;
5762;SDS011;2906;53.282;9.508;2024-02-23T00:12:55;1.60;;;0.45;;
5762;SDS011;2906;53.282;9.508;2024-02-23T00:13:56;2.10;;;0.50;;
5762;SDS011;2906;53.282;9.508;2024-02-23T00:15:00;1.90;;;0.50;;
5762;SDS011;2906;53.282;9.508;2024-02-23T00:16:02;1.10;;;0.55;;
5762;SDS011;2906;53.282;9.508;2024-02-23T00:17:04;1.00;;;0.40;;
5762;SDS011;2906;53.282;9.508;2024-02-23T00:18:06;3.83;;;0.63;;
5762;SDS011;2906;53.282;9.508;2024-02-23T00:19:09;2.45;;;0.40;;
5762;SDS011;2906;53.282;9.508;2024-02-23T00:20:12;2.78;;;0.40;;
5762;SDS011;2906;53.282;9.508;2024-02-23T00:21:15;1.00;;;0.50;;
5762;SDS011;2906;53.282;9.508;2024-02-23T00:22:16;4.70;;;0.50;;
5762;SDS011;2906;53.282;9.508;2024-02-23T00:23:17;4.40;;;0.60;;
5762;SDS011;2906;53.282;9.508;2024-02-23T00:24:23;1.40;;;0.50;;
5762;SDS011;2906;53.282;9.508;2024-02-23T00:25:26;2.97;;;0.60;;
5762;SDS011;2906;53.282;9.508;2024-02-23T00:26:33;1.55;;;0.57;;
5762;SDS011;2906;53.282;9.508;2024-02-23T00:27:38;6.25;;;0.60;;
5762;SDS011;2906;53.282;9.508;2024-02-23T00:28:44;3.55;;;0.40;;
5762;SDS011;2906;53.282;9.508;2024-02-23T00:29:47;1.40;;;0.45;;
5762;SDS011;2906;53.282;9.508;2024-02-23T00:30:50;3.25;;;0.65;;
5762;SDS011;2906;53.282;9.508;2024-02-23T00:31:51;0.93;;;0.50;;
5762;SDS011;2906;53.282;9.508;2024-02-23T00:32:53;2.00;;;0.60;;
5762;SDS011;2906;53.282;9.508;2024-02-23T00:33:56;1.80;;;0.50;;
5762;SDS011;2906;53.282;9.508;2024-02-23T00:34:58;1.10;;;0.65;;
5762;SDS011;2906;53.282;9.508;2024-02-23T00:36:01;1.85;;;0.50;;
5762;SDS011;2906;53.282;9.508;2024-02-23T00:37:03;2.30;;;0.73;;
5762;SDS011;2906;53.282;9.508;2024-02-23T00:38:08;1.95;;;0.90;;
5762;SDS011;2906;53.282;9.508;2024-02-23T00:39:11;1.45;;;0.73;;
5762;SDS011;2906;53.282;9.508;2024-02-23T00:40:15;1.45;;;0.57;;
5762;SDS011;2906;53.282;9.508;2024-02-23T00:41:20;1.70;;;0.65;;
5762;SDS011;2906;53.282;9.508;2024-02-23T00:42:23;2.30;;;0.50;;
5762;SDS011;2906;53.282;9.508;2024-02-23T00:43:24;0.90;;;0.38;;
5762;SDS011;2906;53.282;9.508;2024-02-23T00:44:29;5.57;;;0.57;;
5762;SDS011;2906;53.282;9.508;2024-02-23T00:45:32;0.80;;;0.30;;
5762;SDS011;2906;53.282;9.508;2024-02-23T00:46:37;1.85;;;0.30;;
5762;SDS011;2906;53.282;9.508;2024-02-23T00:47:39;0.80;;;0.30;;
5762;SDS011;2906;53.282;9.508;2024-02-23T00:48:41;0.80;;;0.30;;
5762;SDS011;2906;53.282;9.508;2024-02-23T00:49:44;1.00;;;0.47;;
5762;SDS011;2906;53.282;9.508;2024-02-23T00:50:45;0.80;;;0.30;;
5762;SDS011;2906;53.282;9.508;2024-02-23T00:51:49;0.90;;;0.30;;
5762;SDS011;2906;53.282;9.508;2024-02-23T00:52:50;0.90;;;0.30;;
5762;SDS011;2906;53.282;9.508;2024-02-23T00:53:55;1.48;;;0.50;;
5762;SDS011;2906;53.282;9.508;2024-02-23T00:54:56;0.90;;;0.30;;
5762;SDS011;2906;53.282;9.508;2024-02-23T00:55:59;0.90;;;0.57;;
5762;SDS011;2906;53.282;9.508;2024-02-23T00:57:02;1.00;;;0.30;;
5762;SDS011;2906;53.282;9.508;2024-02-23T00:58:04;0.80;;;0.20;;
5762;SDS011;2906;53.282;9.508;2024-02-23T00:59:07;1.00;;;0.40;;
5762;SDS011;2906;53.282;9.508;2024-02-23T01:00:11;2.65;;;0.60;;
5762;SDS011;2906;53.282;9.508;2024-02-23T01:01:15;1.55;;;0.45;;
5762;SDS011;2906;53.282;9.508;2024-02-23T01:02:18;0.80;;;0.30;;
5762;SDS011;2906;53.282;9.508;2024-02-23T01:03:28;2.03;;;0.40;;
5762;SDS011;2906;53.282;9.508;2024-02-23T01:04:30;0.80;;;0.30;;
5762;SDS011;2906;53.282;9.508;2024-02-23T01:05:34;0.90;;;0.50;;
5762;SDS011;2906;53.282;9.508;2024-02-23T01:06:35;1.55;;;0.40;;
5762;SDS011;2906;53.282;9.508;2024-02-23T01:07:40;0.80;;;0.30;;
5762;SDS011;2906;53.282;9.508;2024-02-23T01:08:43;1.00;;;0.40;;
5762;SDS011;2906;53.282;9.508;2024-02-23T01:09:48;2.58;;;0.65;;
5762;SDS011;2906;53.282;9.508;2024-02-23T01:10:50;1.00;;;0.40;;
5762;SDS011;2906;53.282;9.508;2024-02-23T01:11:51;3.38;;;0.40;;
5762;SDS011;2906;53.282;9.508;2024-02-23T01:12:55;0.80;;;0.30;;
5762;SDS011;2906;53.282;9.508;2024-02-23T01:13:57;1.25;;;0.65;;
5762;SDS011;2906;53.282;9.508;2024-02-23T01:15:00;1.65;;;0.50;;
5762;SDS011;2906;53.282;9.508;2024-02-23T01:16:02;0.90;;;0.50;;
5762;SDS011;2906;53.282;9.508;2024-02-23T01:17:03;0.90;;;0.60;;
5762;SDS011;2906;53.282;9.508;2024-02-23T01:18:06;0.80;;;0.40;;
5762;SDS011;2906;53.282;9.508;2024-02-23T01:19:08;1.65;;;0.70;;
5762;SDS011;2906;53.282;9.508;2024-02-23T01:20:11;1.00;;;0.45;;
5762;SDS011;2906;53.282;9.508;2024-02-23T01:21:13;1.88;;;0.60;;
5762;SDS011;2906;53.282;9.508;2024-02-23T01:22:18;0.98;;;0.55;;
5762;SDS011;2906;53.282;9.508;2024-02-23T01:23:22;0.90;;;0.60;;
5762;SDS011;2906;53.282;9.508;2024-02-23T01:24:25;0.90;;;0.50;;
5762;SDS011;2906;53.282;9.508;2024-02-23T01:25:27;2.30;;;0.60;;
5762;SDS011;2906;53.282;9.508;2024-02-23T01:26:31;1.20;;;0.60;;
5762;SDS011;2906;53.282;9.508;2024-02-23T01:27:33;1.90;;;0.55;;
5762;SDS011;2906;53.282;9.508;2024-02-23T01:28:42;0.90;;;0.60;;
5762;SDS011;2906;53.282;9.508;2024-02-23T01:29:46;1.05;;;0.60;;
5762;SDS011;2906;53.282;9.508;2024-02-23T01:30:51;0.90;;;0.50;;
5762;SDS011;2906;53.282;9.508;2024-02-23T01:31:53;2.45;;;0.55;;
5762;SDS011;2906;53.282;9.508;2024-02-23T01:32:58;0.90;;;0.50;;
5762;SDS011;2906;53.282;9.508;2024-02-23T01:34:00;1.00;;;0.52;;
5762;SDS011;2906;53.282;9.508;2024-02-23T01:35:05;1.75;;;0.70;;
5762;SDS011;2906;53.282;9.508;2024-02-23T01:36:06;1.52;;;0.70;;
5762;SDS011;2906;53.282;9.508;2024-02-23T01:37:10;0.80;;;0.50;;
5762;SDS011;2906;53.282;9.508;2024-02-23T01:38:11;0.80;;;0.50;;
5762;SDS011;2906;53.282;9.508;2024-02-23T01:39:20;0.80;;;0.40;;
5762;SDS011;2906;53.282;9.508;2024-02-23T01:40:22;0.80;;;0.40;;
5762;SDS011;2906;53.282;9.508;2024-02-23T01:41:23;0.85;;;0.35;;
5762;SDS011;2906;53.282;9.508;2024-02-23T01:42:25;0.90;;;0.40;;
5762;SDS011;2906;53.282;9.508;2024-02-23T01:43:29;1.00;;;0.30;;
5762;SDS011;2906;53.282;9.508;2024-02-23T01:44:42;0.90;;;0.70;;
5762;SDS011;2906;53.282;9.508;2024-02-23T01:45:46;0.80;;;0.40;;
5762;SDS011;2906;53.282;9.508;2024-02-23T01:46:49;1.30;;;0.40;;
5762;SDS011;2906;53.282;9.508;2024-02-23T01:48:02;1.00;;;0.50;;
5762;SDS011;2906;53.282;9.508;2024-02-23T01:49:05;0.90;;;0.40;;
5762;SDS011;2906;53.282;9.508;2024-02-23T01:50:14;0.90;;;0.40;;
5762;SDS011;2906;53.282;9.508;2024-02-23T01:51:17;0.80;;;0.30;;
5762;SDS011;2906;53.282;9.508;2024-02-23T01:52:19;0.90;;;0.40;;
5762;SDS011;2906;53.282;9.508;2024-02-23T01:53:21;1.08;;;0.40;;
5762;SDS011;2906;53.282;9.508;2024-02-23T01:54:27;1.10;;;0.40;;
5762;SDS011;2906;53.282;9.508;2024-02-23T01:55:30;2.25;;;0.40;;
5762;SDS011;2906;53.282;9.508;2024-02-23T01:56:34;0.80;;;0.35;;
5762;SDS011;2906;53.282;9.508;2024-02-23T01:57:36;1.48;;;0.40;;
5762;SDS011;2906;53.282;9.508;2024-02-23T01:58:39;0.90;;;0.30;;
5762;SDS011;2906;53.282;9.508;2024-02-23T01:59:45;0.80;;;0.30;;
5762;SDS011;2906;53.282;9.508;2024-02-23T02:00:46;1.65;;;0.30;;
5762;SDS011;2906;53.282;9.508;2024-02-23T02:01:49;3.28;;;0.40;;
5762;SDS011;2906;53.282;9.508;2024-02-23T02:02:50;1.45;;;0.50;;
5762;SDS011;2906;53.282;9.508;2024-02-23T02:03:52;0.80;;;0.30;;
5762;SDS011;2906;53.282;9.508;2024-02-23T02:04:56;0.80;;;0.30;;
5762;SDS011;2906;53.282;9.508;2024-02-23T02:05:57;0.80;;;0.30;;
5762;SDS011;2906;53.282;9.508;2024-02-23T02:07:00;1.00;;;0.35;;
5762;SDS011;2906;53.282;9.508;2024-02-23T02:08:03;0.80;;;0.40;;
5762;SDS011;2906;53.282;9.508;2024-02-23T02:09:05;0.90;;;0.40;;
5762;SDS011;2906;53.282;9.508;2024-02-23T02:10:09;0.80;;;0.30;;
5762;SDS011;2906;53.282;9.508;2024-02-23T02:11:10;0.80;;;0.30;;
5762;SDS011;2906;53.282;9.508;2024-02-23T02:12:12;0.98;;;0.50;;
5762;SDS011;2906;53.282;9.508;2024-02-23T02:13:17;0.80;;;0.30;;
5762;SDS011;2906;53.282;9.508;2024-02-23T02:14:18;0.80;;;0.40;;
5762;SDS011;2906;53.282;9.508;2024-02-23T02:15:20;0.80;;;0.40;;
5762;SDS011;2906;53.282;9.508;2024-02-23T02:16:22;1.00;;;0.47;;
5762;SDS011;2906;53.282;9.508;2024-02-23T02:17:24;0.90;;;0.57;;
5762;SDS011;2906;53.282;9.508;2024-02-23T02:18:27;1.90;;;0.43;;
5762;SDS011;2906;53.282;9.508;2024-02-23T02:19:29;0.80;;;0.40;;
5762;SDS011;2906;53.282;9.508;2024-02-23T02:20:32;1.20;;;0.40;;
5762;SDS011;2906;53.282;9.508;2024-02-23T02:21:34;0.90;;;0.50;;
5762;SDS011;2906;53.282;9.508;2024-02-23T02:22:36;0.95;;;0.50;;
5762;SDS011;2906;53.282;9.508;2024-02-23T02:23:39;1.38;;;0.60;;
5762;SDS011;2906;53.282;9.508;2024-02-23T02:24:41;1.00;;;0.50;;
5762;SDS011;2906;53.282;9.508;2024-02-23T02:25:55;1.65;;;1.13;;
5762;SDS011;2906;53.282;9.508;2024-02-23T02:26:57;1.15;;;0.50;;
5762;SDS011;2906;53.282;9.508;2024-02-23T02:27:59;0.80;;;0.43;;
5762;SDS011;2906;53.282;9.508;2024-02-23T02:29:01;2.85;;;0.50;;
5762;SDS011;2906;53.282;9.508;2024-02-23T02:30:04;1.20;;;0.55;;
5762;SDS011;2906;53.282;9.508;2024-02-23T02:31:07;1.10;;;0.60;;
5762;SDS011;2906;53.282;9.508;2024-02-23T02:32:09;0.80;;;0.40;;
5762;SDS011;2906;53.282;9.508;2024-02-23T02:33:11;2.08;;;0.40;;
5762;SDS011;2906;53.282;9.508;2024-02-23T02:34:13;1.52;;;0.40;;
5762;SDS011;2906;53.282;9.508;2024-02-23T02:35:15;0.80;;;0.30;;
5762;SDS011;2906;53.282;9.508;2024-02-23T02:36:17;1.70;;;0.60;;
5762;SDS011;2906;53.282;9.508;2024-02-23T02:37:20;2.03;;;0.40;;
5762;SDS011;2906;53.282;9.508;2024-02-23T02:38:23;3.88;;;0.60;;
5762;SDS011;2906;53.282;9.508;2024-02-23T02:39:24;3.38;;;0.55;;
5762;SDS011;2906;53.282;9.508;2024-02-23T02:40:26;1.10;;;0.40;;
5762;SDS011;2906;53.282;9.508;2024-02-23T02:41:29;2.25;;;0.40;;
5762;SDS011;2906;53.282;9.508;2024-02-23T02:42:36;1.70;;;0.50;;
5762;SDS011;2906;53.282;9.508;2024-02-23T02:43:37;1.10;;;0.50;;
5762;SDS011;2906;53.282;9.508;2024-02-23T02:44:39;2.45;;;0.50;;
5762;SDS011;2906;53.282;9.508;2024-02-23T02:45:41;1.00;;;0.50;;
5762;SDS011;2906;53.282;9.508;2024-02-23T02:46:45;1.00;;;0.47;;
5762;SDS011;2906;53.282;9.508;2024-02-23T02:47:47;0.90;;;0.40;;
5762;SDS011;2906;53.282;9.508;2024-02-23T02:48:49;0.90;;;0.55;;
5762;SDS011;2906;53.282;9.508;2024-02-23T02:49:50;1.10;;;0.57;;
5762;SDS011;2906;53.282;9.508;2024-02-23T02:50:53;0.90;;;0.40;;
5762;SDS011;2906;53.282;9.508;2024-02-23T02:51:55;1.27;;;0.63;;
5762;SDS011;2906;53.282;9.508;2024-02-23T02:52:57;1.88;;;0.45;;
5762;SDS011;2906;53.282;9.508;2024-02-23T02:53:59;0.90;;;0.52;;
5762;SDS011;2906;53.282;9.508;2024-02-23T02:55:01;1.00;;;0.40;;
5762;SDS011;2906;53.282;9.508;2024-02-23T02:56:05;1.48;;;0.60;;
5762;SDS011;2906;53.282;9.508;2024-02-23T02:57:09;0.95;;;0.40;;
5762;SDS011;2906;53.282;9.508;2024-02-23T02:58:10;0.80;;;0.32;;
5762;SDS011;2906;53.282;9.508;2024-02-23T02:59:14;0.80;;;0.40;;
5762;SDS011;2906;53.282;9.508;2024-02-23T03:00:16;0.90;;;0.40;;
5762;SDS011;2906;53.282;9.508;2024-02-23T03:01:18;1.27;;;0.30;;
5762;SDS011;2906;53.282;9.508;2024-02-23T03:02:19;1.10;;;0.30;;
5762;SDS011;2906;53.282;9.508;2024-02-23T03:04:45;0.80;;;0.30;;
5762;SDS011;2906;53.282;9.508;2024-02-23T03:05:49;1.00;;;0.40;;
5762;SDS011;2906;53.282;9.508;2024-02-23T03:06:50;0.80;;;0.30;;
5762;SDS011;2906;53.282;9.508;2024-02-23T03:07:52;0.80;;;0.30;;
5762;SDS011;2906;53.282;9.508;2024-02-23T03:08:54;1.35;;;0.30;;
5762;SDS011;2906;53.282;9.508;2024-02-23T03:09:56;0.80;;;0.30;;
5762;SDS011;2906;53.282;9.508;2024-02-23T03:10:57;1.65;;;0.30;;
5762;SDS011;2906;53.282;9.508;2024-02-23T03:12:00;0.90;;;0.35;;
5762;SDS011;2906;53.282;9.508;2024-02-23T03:13:03;0.80;;;0.30;;
5762;SDS011;2906;53.282;9.508;2024-02-23T03:14:04;1.00;;;0.30;;
5762;SDS011;2906;53.282;9.508;2024-02-23T03:15:07;0.80;;;0.30;;
5762;SDS011;2906;53.282;9.508;2024-02-23T03:16:14;0.80;;;0.30;;
5762;SDS011;2906;53.282;9.508;2024-02-23T03:17:17;0.80;;;0.30;;
5762;SDS011;2906;53.282;9.508;2024-02-23T03:18:18;1.00;;;0.30;;
5762;SDS011;2906;53.282;9.508;2024-02-23T03:19:21;0.90;;;0.30;;
5762;SDS011;2906;53.282;9.508;2024-02-23T03:20:24;0.80;;;0.32;;
5762;SDS011;2906;53.282;9.508;2024-02-23T03:21:28;1.30;;;0.70;;
5762;SDS011;2906;53.282;9.508;2024-02-23T03:22:30;0.80;;;0.30;;
5762;SDS011;2906;53.282;9.508;2024-02-23T03:23:34;0.80;;;0.38;;
5762;SDS011;2906;53.282;9.508;2024-02-23T03:24:36;1.33;;;0.30;;
5762;SDS011;2906;53.282;9.508;2024-02-23T03:25:41;0.90;;;0.40;;
5762;SDS011;2906;53.282;9.508;2024-02-23T03:26:46;0.80;;;0.30;;
5762;SDS011;2906;53.282;9.508;2024-02-23T03:27:48;0.80;;;0.30;;
5762;SDS011;2906;53.282;9.508;2024-02-23T03:28:53;0.80;;;0.30;;
5762;SDS011;2906;53.282;9.508;2024-02-23T03:29:56;0.80;;;0.30;;
5762;SDS011;2906;53.282;9.508;2024-02-23T03:31:00;0.80;;;0.35;;
5762;SDS011;2906;53.282;9.508;2024-02-23T03:32:01;0.82;;;0.40;;
5762;SDS011;2906;53.282;9.508;2024-02-23T03:33:03;0.80;;;0.30;;
5762;SDS011;2906;53.282;9.508;2024-02-23T03:34:05;2.55;;;0.63;;
5762;SDS011;2906;53.282;9.508;2024-02-23T03:35:12;0.80;;;0.50;;
5762;SDS011;2906;53.282;9.508;2024-02-23T03:36:15;0.80;;;0.45;;
5762;SDS011;2906;53.282;9.508;2024-02-23T03:37:19;1.27;;;0.50;;
5762;SDS011;2906;53.282;9.508;2024-02-23T03:38:20;0.90;;;0.52;;
5762;SDS011;2906;53.282;9.508;2024-02-23T03:39:22;0.90;;;0.60;;
5762;SDS011;2906;53.282;9.508;2024-02-23T03:40:24;3.17;;;0.65;;
5762;SDS011;2906;53.282;9.508;2024-02-23T03:41:28;1.20;;;0.40;;
5762;SDS011;2906;53.282;9.508;2024-02-23T03:42:31;1.35;;;0.50;;
5762;SDS011;2906;53.282;9.508;2024-02-23T03:43:32;1.45;;;0.60;;
5762;SDS011;2906;53.282;9.508;2024-02-23T03:44:36;0.80;;;0.40;;
5762;SDS011;2906;53.282;9.508;2024-02-23T03:45:39;1.77;;;0.50;;
5762;SDS011;2906;53.282;9.508;2024-02-23T03:46:41;0.90;;;0.50;;
5762;SDS011;2906;53.282;9.508;2024-02-23T03:47:43;0.90;;;0.60;;
5762;SDS011;2906;53.282;9.508;2024-02-23T03:48:45;1.90;;;0.50;;
5762;SDS011;2906;53.282;9.508;2024-02-23T03:49:46;1.42;;;0.43;;
5762;SDS011;2906;53.282;9.508;2024-02-23T03:50:49;2.58;;;0.47;;
5762;SDS011;2906;53.282;9.508;2024-02-23T03:51:51;0.82;;;0.43;;
5762;SDS011;2906;53.282;9.508;2024-02-23T03:52:53;3.75;;;0.40;;
5762;SDS011;2906;53.282;9.508;2024-02-23T03:53:57;1.92;;;0.60;;
5762;SDS011;2906;53.282;9.508;2024-02-23T03:54:59;1.25;;;0.40;;
5762;SDS011;2906;53.282;9.508;2024-02-23T03:56:00;0.90;;;0.40;;
5762;SDS011;2906;53.282;9.508;2024-02-23T03:57:03;1.27;;;0.50;;
5762;SDS011;2906;53.282;9.508;2024-02-23T03:58:05;0.80;;;0.30;;
5762;SDS011;2906;53.282;9.508;2024-02-23T03:59:08;1.05;;;0.60;;
5762;SDS011;2906;53.282;9.508;2024-02-23T04:00:12;1.48;;;0.50;;
5762;SDS011;2906;53.282;9.508;2024-02-23T04:01:14;0.85;;;0.38;;
5762;SDS011;2906;53.282;9.508;2024-02-23T04:02:17;0.90;;;0.50;;
5762;SDS011;2906;53.282;9.508;2024-02-23T04:03:19;0.90;;;0.45;;
5762;SDS011;2906;53.282;9.508;2024-02-23T04:04:22;1.30;;;0.50;;
5762;SDS011;2906;53.282;9.508;2024-02-23T04:05:25;1.55;;;0.60;;
5762;SDS011;2906;53.282;9.508;2024-02-23T04:06:27;2.38;;;0.60;;
5762;SDS011;2906;53.282;9.508;2024-02-23T04:07:28;1.13;;;0.55;;
5762;SDS011;2906;53.282;9.508;2024-02-23T04:08:31;1.20;;;0.60;;
5762;SDS011;2906;53.282;9.508;2024-02-23T04:09:32;1.30;;;0.82;;
5762;SDS011;2906;53.282;9.508;2024-02-23T04:10:34;2.47;;;0.57;;
5762;SDS011;2906;53.282;9.508;2024-02-23T04:11:36;3.63;;;0.90;;
5762;SDS011;2906;53.282;9.508;2024-02-23T04:12:39;4.40;;;0.65;;
5762;SDS011;2906;53.282;9.508;2024-02-23T04:13:42;2.28;;;0.70;;
5762;SDS011;2906;53.282;9.508;2024-02-23T04:14:45;4.05;;;0.63;;
5762;SDS011;2906;53.282;9.508;2024-02-23T04:15:50;5.03;;;1.10;;
5762;SDS011;2906;53.282;9.508;2024-02-23T04:16:52;8.73;;;0.85;;
5762;SDS011;2906;53.282;9.508;2024-02-23T04:17:56;3.47;;;0.80;;
5762;SDS011;2906;53.282;9.508;2024-02-23T04:18:58;2.38;;;0.70;;
5762;SDS011;2906;53.282;9.508;2024-02-23T04:20:04;3.28;;;0.90;;
5762;SDS011;2906;53.282;9.508;2024-02-23T04:21:07;6.97;;;1.05;;
5762;SDS011;2906;53.282;9.508;2024-02-23T04:22:09;6.25;;;1.15;;
5762;SDS011;2906;53.282;9.508;2024-02-23T04:23:12;6.35;;;0.90;;
5762;SDS011;2906;53.282;9.508;2024-02-23T04:24:16;1.63;;;0.90;;
5762;SDS011;2906;53.282;9.508;2024-02-23T04:25:17;3.33;;;1.25;;
5762;SDS011;2906;53.282;9.508;2024-02-23T04:26:20;1.75;;;0.80;;
5762;SDS011;2906;53.282;9.508;2024-02-23T04:27:23;2.17;;;1.08;;
5762;SDS011;2906;53.282;9.508;2024-02-23T04:28:29;5.88;;;1.27;;
5762;SDS011;2906;53.282;9.508;2024-02-23T04:29:32;3.05;;;1.20;;
5762;SDS011;2906;53.282;9.508;2024-02-23T04:30:39;7.80;;;1.23;;
5762;SDS011;2906;53.282;9.508;2024-02-23T04:31:41;3.45;;;0.95;;
5762;SDS011;2906;53.282;9.508;2024-02-23T04:32:43;6.63;;;1.20;;
5762;SDS011;2906;53.282;9.508;2024-02-23T04:33:45;1.83;;;1.05;;
5762;SDS011;2906;53.282;9.508;2024-02-23T04:34:47;3.15;;;1.38;;
5762;SDS011;2906;53.282;9.508;2024-02-23T04:35:49;1.70;;;1.30;;
5762;SDS011;2906;53.282;9.508;2024-02-23T04:36:51;1.30;;;1.05;;
5762;SDS011;2906;53.282;9.508;2024-02-23T04:37:53;3.50;;;1.80;;
5762;SDS011;2906;53.282;9.508;2024-02-23T04:38:55;2.45;;;1.20;;
5762;SDS011;2906;53.282;9.508;2024-02-23T04:39:57;2.17;;;1.15;;
5762;SDS011;2906;53.282;9.508;2024-02-23T04:41:02;8.60;;;2.58;;
5762;SDS011;2906;53.282;9.508;2024-02-23T04:42:03;7.65;;;1.50;;
5762;SDS011;2906;53.282;9.508;2024-02-23T04:43:08;2.85;;;1.65;;
5762;SDS011;2906;53.282;9.508;2024-02-23T04:44:10;2.65;;;1.30;;
5762;SDS011;2906;53.282;9.508;2024-02-23T04:45:13;6.65;;;1.45;;
5762;SDS011;2906;53.282;9.508;2024-02-23T04:46:22;3.60;;;1.67;;
5762;SDS011;2906;53.282;9.508;2024-02-23T04:47:27;4.22;;;1.70;;
5762;SDS011;2906;53.282;9.508;2024-02-23T04:48:33;7.50;;;1.83;;
5762;SDS011;2906;53.282;9.508;2024-02-23T04:49:36;3.25;;;1.83;;
5762;SDS011;2906;53.282;9.508;2024-02-23T04:50:40;1.95;;;1.50;;
5762;SDS011;2906;53.282;9.508;2024-02-23T04:51:42;4.47;;;1.92;;
5762;SDS011;2906;53.282;9.508;2024-02-23T04:52:46;4.15;;;1.50;;
5762;SDS011;2906;53.282;9.508;2024-02-23T04:53:48;1.88;;;1.27;;
5762;SDS011;2906;53.282;9.508;2024-02-23T04:54:58;2.75;;;1.30;;
5762;SDS011;2906;53.282;9.508;2024-02-23T04:56:01;8.43;;;1.60;;
5762;SDS011;2906;53.282;9.508;2024-02-23T04:57:04;4.50;;;1.70;;
5762;SDS011;2906;53.282;9.508;2024-02-23T04:58:14;1.88;;;1.30;;
5762;SDS011;2906;53.282;9.508;2024-02-23T04:59:17;5.60;;;1.80;;
5762;SDS011;2906;53.282;9.508;2024-02-23T05:00:21;3.17;;;1.48;;
5762;SDS011;2906;53.282;9.508;2024-02-23T05:01:24;3.80;;;1.88;;
5762;SDS011;2906;53.282;9.508;2024-02-23T05:02:28;3.22;;;1.63;;
5762;SDS011;2906;53.282;9.508;2024-02-23T05:03:35;2.97;;;1.40;;
5762;SDS011;2906;53.282;9.508;2024-02-23T05:04:41;3.17;;;1.70;;
5762;SDS011;2906;53.282;9.508;2024-02-23T05:05:42;3.55;;;1.52;;
5762;SDS011;2906;53.282;9.508;2024-02-23T05:06:46;5.85;;;1.80;;
5762;SDS011;2906;53.282;9.508;2024-02-23T05:07:48;6.20;;;1.38;;
5762;SDS011;2906;53.282;9.508;2024-02-23T05:08:53;5.88;;;1.50;;
5762;SDS011;2906;53.282;9.508;2024-02-23T05:09:55;4.28;;;1.42;;
5762;SDS011;2906;53.282;9.508;2024-02-23T05:10:59;4.53;;;1.45;;
5762;SDS011;2906;53.282;9.508;2024-02-23T05:12:04;8.75;;;1.40;;
5762;SDS011;2906;53.282;9.508;2024-02-23T05:13:07;4.82;;;1.27;;
5762;SDS011;2906;53.282;9.508;2024-02-23T05:14:13;4.97;;;1.30;;
5762;SDS011;2906;53.282;9.508;2024-02-23T05:15:16;5.28;;;1.65;;
5762;SDS011;2906;53.282;9.508;2024-02-23T05:16:19;5.55;;;1.90;;
5762;SDS011;2906;53.282;9.508;2024-02-23T05:17:22;2.25;;;1.15;;
5762;SDS011;2906;53.282;9.508;2024-02-23T05:18:26;1.55;;;1.02;;
5762;SDS011;2906;53.282;9.508;2024-02-23T05:19:29;4.00;;;1.20;;
5762;SDS011;2906;53.282;9.508;2024-02-23T05:20:31;3.20;;;1.20;;
5762;SDS011;2906;53.282;9.508;2024-02-23T05:21:35;1.95;;;1.27;;
5762;SDS011;2906;53.282;9.508;2024-02-23T05:22:38;4.72;;;1.48;;
5762;SDS011;2906;53.282;9.508;2024-02-23T05:23:40;5.82;;;1.10;;
5762;SDS011;2906;53.282;9.508;2024-02-23T05:24:48;1.63;;;1.00;;
5762;SDS011;2906;53.282;9.508;2024-02-23T05:25:56;1.67;;;0.90;;
5762;SDS011;2906;53.282;9.508;2024-02-23T05:26:59;2.85;;;1.30;;
5762;SDS011;2906;53.282;9.508;2024-02-23T05:28:02;2.58;;;0.90;;
5762;SDS011;2906;53.282;9.508;2024-02-23T05:29:05;3.97;;;1.05;;
5762;SDS011;2906;53.282;9.508;2024-02-23T05:30:09;1.83;;;1.10;;
5762;SDS011;2906;53.282;9.508;2024-02-23T05:31:14;1.98;;;1.33;;
5762;SDS011;2906;53.282;9.508;2024-02-23T05:32:15;4.50;;;1.30;;
5762;SDS011;2906;53.282;9.508;2024-02-23T05:33:20;5.40;;;1.17;;
5762;SDS011;2906;53.282;9.508;2024-02-23T05:34:27;4.53;;;1.10;;
5762;SDS011;2906;53.282;9.508;2024-02-23T05:35:31;2.40;;;1.08;;
5762;SDS011;2906;53.282;9.508;2024-02-23T05:36:34;6.00;;;1.27;;
5762;SDS011;2906;53.282;9.508;2024-02-23T05:37:37;4.40;;;1.05;;
5762;SDS011;2906;53.282;9.508;2024-02-23T05:38:42;2.08;;;0.77;;
5762;SDS011;2906;53.282;9.508;2024-02-23T05:39:46;2.88;;;0.95;;
5762;SDS011;2906;53.282;9.508;2024-02-23T05:40:50;4.65;;;0.90;;
5762;SDS011;2906;53.282;9.508;2024-02-23T05:41:56;2.10;;;1.13;;
5762;SDS011;2906;53.282;9.508;2024-02-23T05:43:01;3.17;;;0.73;;
5762;SDS011;2906;53.282;9.508;2024-02-23T05:44:03;1.30;;;0.82;;
5762;SDS011;2906;53.282;9.508;2024-02-23T05:45:07;1.80;;;0.80;;
5762;SDS011;2906;53.282;9.508;2024-02-23T05:46:14;5.85;;;0.85;;
5762;SDS011;2906;53.282;9.508;2024-02-23T05:47:16;1.67;;;0.80;;
5762;SDS011;2906;53.282;9.508;2024-02-23T05:48:22;2.08;;;0.90;;
5762;SDS011;2906;53.282;9.508;2024-02-23T05:49:25;2.60;;;0.90;;
5762;SDS011;2906;53.282;9.508;2024-02-23T05:50:36;1.10;;;0.88;;
5762;SDS011;2906;53.282;9.508;2024-02-23T05:51:38;3.25;;;0.70;;
5762;SDS011;2906;53.282;9.508;2024-02-23T05:52:42;0.98;;;0.63;;
5762;SDS011;2906;53.282;9.508;2024-02-23T05:53:46;1.45;;;0.80;;
5762;SDS011;2906;53.282;9.508;2024-02-23T05:54:50;8.07;;;0.82;;
5762;SDS011;2906;53.282;9.508;2024-02-23T05:55:54;2.60;;;0.80;;
5762;SDS011;2906;53.282;9.508;2024-02-23T05:56:57;1.20;;;0.63;;
5762;SDS011;2906;53.282;9.508;2024-02-23T05:57:59;2.47;;;0.90;;
5762;SDS011;2906;53.282;9.508;2024-02-23T05:59:07;2.28;;;0.70;;
5762;SDS011;2906;53.282;9.508;2024-02-23T06:00:10;1.30;;;0.80;;
5762;SDS011;2906;53.282;9.508;2024-02-23T06:01:15;2.55;;;1.17;;
5762;SDS011;2906;53.282;9.508;2024-02-23T06:02:18;2.53;;;1.00;;
5762;SDS011;2906;53.282;9.508;2024-02-23T06:03:22;2.45;;;1.05;;
5762;SDS011;2906;53.282;9.508;2024-02-23T06:04:27;2.75;;;1.00;;
5762;SDS011;2906;53.282;9.508;2024-02-23T06:05:35;2.35;;;1.02;;
5762;SDS011;2906;53.282;9.508;2024-02-23T06:06:41;1.60;;;1.00;;
5762;SDS011;2906;53.282;9.508;2024-02-23T06:07:44;1.35;;;1.20;;
5762;SDS011;2906;53.282;9.508;2024-02-23T06:08:49;2.03;;;1.17;;
5762;SDS011;2906;53.282;9.508;2024-02-23T06:09:51;1.40;;;1.30;;
5762;SDS011;2906;53.282;9.508;2024-02-23T06:10:53;1.25;;;1.15;;
5762;SDS011;2906;53.282;9.508;2024-02-23T06:11:55;3.78;;;1.30;;
5762;SDS011;2906;53.282;9.508;2024-02-23T06:12:58;5.47;;;1.40;;
5762;SDS011;2906;53.282;9.508;2024-02-23T06:14:00;4.22;;;1.40;;
5762;SDS011;2906;53.282;9.508;2024-02-23T06:15:02;3.58;;;1.60;;
5762;SDS011;2906;53.282;9.508;2024-02-23T06:16:09;3.88;;;1.35;;
5762;SDS011;2906;53.282;9.508;2024-02-23T06:17:18;3.83;;;1.75;;
5762;SDS011;2906;53.282;9.508;2024-02-23T06:18:23;2.28;;;1.20;;
5762;SDS011;2906;53.282;9.508;2024-02-23T06:19:25;6.47;;;1.83;;
5762;SDS011;2906;53.282;9.508;2024-02-23T06:20:29;3.05;;;1.70;;
5762;SDS011;2906;53.282;9.508;2024-02-23T06:21:33;3.05;;;1.70;;
5762;SDS011;2906;53.282;9.508;2024-02-23T06:22:41;4.65;;;1.58;;
5762;SDS011;2906;53.282;9.508;2024-02-23T06:23:43;9.85;;;1.70;;
5762;SDS011;2906;53.282;9.508;2024-02-23T06:24:47;7.05;;;1.45;;
5762;SDS011;2906;53.282;9.508;2024-02-23T06:25:50;3.88;;;1.70;;
5762;SDS011;2906;53.282;9.508;2024-02-23T06:26:52;3.35;;;1.85;;
5762;SDS011;2906;53.282;9.508;2024-02-23T06:27:58;5.28;;;1.90;;
5762;SDS011;2906;53.282;9.508;2024-02-23T06:29:02;6.65;;;1.88;;
5762;SDS011;2906;53.282;9.508;2024-02-23T06:30:09;6.70;;;1.80;;
5762;SDS011;2906;53.282;9.508;2024-02-23T06:31:11;4.80;;;1.45;;
5762;SDS011;2906;53.282;9.508;2024-02-23T06:32:13;3.75;;;1.40;;
5762;SDS011;2906;53.282;9.508;2024-02-23T06:33:16;9.02;;;1.90;;
5762;SDS011;2906;53.282;9.508;2024-02-23T06:34:18;4.60;;;2.40;;